sensor_id;sensor_type;location;lat;lon;timestamp;P1;P2;P0
28026;PMS5003;15344;52.342;-1.290;2024-02-04T00:01:39;3;3;
28026;PMS5003;15344;52.342;-1.290;2024-02-04T00:04:04;5;5;
28026;PMS5003;15344;52.342;-1.290;2024-02-04T00:06:30;5;5;
28026;PMS5003;15344;52.342;-1.290;2024-02-04T00:08:55;5;5;
28026;PMS5003;15344;52.342;-1.290;2024-02-04T00:11:20;10;8;
28026;PMS5003;15344;52.342;-1.290;2024-02-04T00:13:45;5;5;
28026;PMS5003;15344;52.342;-1.290;2024-02-04T00:16:11;6;6;
28026;PMS5003;15344;52.342;-1.290;2024-02-04T00:18:37;5;5;
28026;PMS5003;15344;52.342;-1.290;2024-02-04T00:21:02;4;4;
28026;PMS5003;15344;52.342;-1.290;2024-02-04T00:23:27;3;3;
28026;PMS5003;15344;52.342;-1.290;2024-02-04T00:25:53;3;3;
28026;PMS5003;15344;52.342;-1.290;2024-02-04T00:28:18;5;3;
28026;PMS5003;15344;52.342;-1.290;2024-02-04T00:30:43;3;2;
28026;PMS5003;15344;52.342;-1.290;2024-02-04T00:33:08;3;3;
28026;PMS5003;15344;52.342;-1.290;2024-02-04T00:35:34;6;3;
28026;PMS5003;15344;52.342;-1.290;2024-02-04T00:37:59;4;3;
28026;PMS5003;15344;52.342;-1.290;2024-02-04T00:40:25;12;3;
28026;PMS5003;15344;52.342;-1.290;2024-02-04T00:42:50;3;3;
28026;PMS5003;15344;52.342;-1.290;2024-02-04T00:45:15;9;5;
28026;PMS5003;15344;52.342;-1.290;2024-02-04T00:47:41;6;6;
28026;PMS5003;15344;52.342;-1.290;2024-02-04T00:50:06;8;8;
28026;PMS5003;15344;52.342;-1.290;2024-02-04T00:52:31;9;7;
28026;PMS5003;15344;52.342;-1.290;2024-02-04T00:54:56;8;8;
28026;PMS5003;15344;52.342;-1.290;2024-02-04T00:57:21;10;9;
28026;PMS5003;15344;52.342;-1.290;2024-02-04T00:59:47;13;11;
28026;PMS5003;15344;52.342;-1.290;2024-02-04T01:02:12;11;9;
28026;PMS5003;15344;52.342;-1.290;2024-02-04T01:04:37;18;11;
28026;PMS5003;15344;52.342;-1.290;2024-02-04T01:07:02;14;12;
28026;PMS5003;15344;52.342;-1.290;2024-02-04T01:09:28;10;10;
28026;PMS5003;15344;52.342;-1.290;2024-02-04T01:11:54;13;11;
28026;PMS5003;15344;52.342;-1.290;2024-02-04T01:14:19;13;12;
28026;PMS5003;15344;52.342;-1.290;2024-02-04T01:16:44;9;8;
28026;PMS5003;15344;52.342;-1.290;2024-02-04T01:19:09;12;9;
28026;PMS5003;15344;52.342;-1.290;2024-02-04T01:21:35;10;10;
28026;PMS5003;15344;52.342;-1.290;2024-02-04T01:24:01;10;9;
28026;PMS5003;15344;52.342;-1.290;2024-02-04T01:26:26;9;7;
28026;PMS5003;15344;52.342;-1.290;2024-02-04T01:28:52;8;8;
28026;PMS5003;15344;52.342;-1.290;2024-02-04T01:31:17;11;10;
28026;PMS5003;15344;52.342;-1.290;2024-02-04T01:33:42;9;9;
28026;PMS5003;15344;52.342;-1.290;2024-02-04T01:36:08;7;7;
28026;PMS5003;15344;52.342;-1.290;2024-02-04T01:38:33;8;8;
28026;PMS5003;15344;52.342;-1.290;2024-02-04T01:40:58;8;6;
28026;PMS5003;15344;52.342;-1.290;2024-02-04T01:43:24;7;7;
28026;PMS5003;15344;52.342;-1.290;2024-02-04T01:45:49;6;6;
28026;PMS5003;15344;52.342;-1.290;2024-02-04T01:48:14;9;8;
28026;PMS5003;15344;52.342;-1.290;2024-02-04T01:50:40;7;7;
28026;PMS5003;15344;52.342;-1.290;2024-02-04T01:53:05;7;7;
28026;PMS5003;15344;52.342;-1.290;2024-02-04T01:55:30;7;7;
28026;PMS5003;15344;52.342;-1.290;2024-02-04T01:57:56;6;5;
28026;PMS5003;15344;52.342;-1.290;2024-02-04T02:00:21;6;5;
28026;PMS5003;15344;52.342;-1.290;2024-02-04T02:02:46;8;7;
28026;PMS5003;15344;52.342;-1.290;2024-02-04T02:05:11;5;5;
28026;PMS5003;15344;52.342;-1.290;2024-02-04T02:07:37;5;5;
28026;PMS5003;15344;52.342;-1.290;2024-02-04T02:10:02;8;6;
28026;PMS5003;15344;52.342;-1.290;2024-02-04T02:12:29;8;7;
28026;PMS5003;15344;52.342;-1.290;2024-02-04T02:14:56;5;5;
28026;PMS5003;15344;52.342;-1.290;2024-02-04T02:17:20;8;4;
28026;PMS5003;15344;52.342;-1.290;2024-02-04T02:19:46;6;6;
28026;PMS5003;15344;52.342;-1.290;2024-02-04T02:22:17;6;5;
28026;PMS5003;15344;52.342;-1.290;2024-02-04T02:24:35;7;7;
28026;PMS5003;15344;52.342;-1.290;2024-02-04T02:27:00;6;6;
28026;PMS5003;15344;52.342;-1.290;2024-02-04T02:29:25;6;6;
28026;PMS5003;15344;52.342;-1.290;2024-02-04T02:31:50;3;3;
28026;PMS5003;15344;52.342;-1.290;2024-02-04T02:34:16;5;5;
28026;PMS5003;15344;52.342;-1.290;2024-02-04T02:36:43;4;3;
28026;PMS5003;15344;52.342;-1.290;2024-02-04T02:39:08;7;5;
28026;PMS5003;15344;52.342;-1.290;2024-02-04T02:41:31;4;3;
28026;PMS5003;15344;52.342;-1.290;2024-02-04T02:43:57;4;4;
28026;PMS5003;15344;52.342;-1.290;2024-02-04T02:46:22;4;4;
28026;PMS5003;15344;52.342;-1.290;2024-02-04T02:48:47;3;3;
28026;PMS5003;15344;52.342;-1.290;2024-02-04T02:51:13;5;3;
28026;PMS5003;15344;52.342;-1.290;2024-02-04T02:53:38;3;3;
28026;PMS5003;15344;52.342;-1.290;2024-02-04T02:56:04;4;4;
28026;PMS5003;15344;52.342;-1.290;2024-02-04T02:58:29;6;3;
28026;PMS5003;15344;52.342;-1.290;2024-02-04T03:00:54;6;5;
28026;PMS5003;15344;52.342;-1.290;2024-02-04T03:03:19;5;3;
28026;PMS5003;15344;52.342;-1.290;2024-02-04T03:05:45;5;5;
28026;PMS5003;15344;52.342;-1.290;2024-02-04T03:08:10;3;3;
28026;PMS5003;15344;52.342;-1.290;2024-02-04T03:10:35;6;3;
28026;PMS5003;15344;52.342;-1.290;2024-02-04T03:13:00;4;4;
28026;PMS5003;15344;52.342;-1.290;2024-02-04T03:15:26;4;3;
28026;PMS5003;15344;52.342;-1.290;2024-02-04T03:17:52;4;3;
28026;PMS5003;15344;52.342;-1.290;2024-02-04T03:20:17;8;3;
28026;PMS5003;15344;52.342;-1.290;2024-02-04T03:22:43;4;4;
28026;PMS5003;15344;52.342;-1.290;2024-02-04T03:25:08;6;5;
28026;PMS5003;15344;52.342;-1.290;2024-02-04T03:27:34;4;3;
28026;PMS5003;15344;52.342;-1.290;2024-02-04T03:29:59;3;2;
28026;PMS5003;15344;52.342;-1.290;2024-02-04T03:32:24;2;2;
28026;PMS5003;15344;52.342;-1.290;2024-02-04T03:34:49;5;5;
28026;PMS5003;15344;52.342;-1.290;2024-02-04T03:37:15;3;3;
28026;PMS5003;15344;52.342;-1.290;2024-02-04T03:39:40;5;3;
28026;PMS5003;15344;52.342;-1.290;2024-02-04T03:42:05;5;4;
28026;PMS5003;15344;52.342;-1.290;2024-02-04T03:44:30;6;3;
28026;PMS5003;15344;52.342;-1.290;2024-02-04T03:46:56;2;2;
28026;PMS5003;15344;52.342;-1.290;2024-02-04T03:49:21;3;3;
28026;PMS5003;15344;52.342;-1.290;2024-02-04T03:51:47;5;4;
28026;PMS5003;15344;52.342;-1.290;2024-02-04T03:54:12;2;2;
28026;PMS5003;15344;52.342;-1.290;2024-02-04T03:56:37;2;2;
28026;PMS5003;15344;52.342;-1.290;2024-02-04T03:59:02;3;3;
28026;PMS5003;15344;52.342;-1.290;2024-02-04T04:01:28;4;4;
28026;PMS5003;15344;52.342;-1.290;2024-02-04T04:03:53;3;2;
28026;PMS5003;15344;52.342;-1.290;2024-02-04T04:06:18;4;4;
28026;PMS5003;15344;52.342;-1.290;2024-02-04T04:08:44;3;3;
28026;PMS5003;15344;52.342;-1.290;2024-02-04T04:11:09;6;3;
28026;PMS5003;15344;52.342;-1.290;2024-02-04T04:13:34;6;5;
28026;PMS5003;15344;52.342;-1.290;2024-02-04T04:16:00;2;2;
28026;PMS5003;15344;52.342;-1.290;2024-02-04T04:18:25;3;3;
28026;PMS5003;15344;52.342;-1.290;2024-02-04T04:20:50;2;2;
28026;PMS5003;15344;52.342;-1.290;2024-02-04T04:23:15;7;4;
28026;PMS5003;15344;52.342;-1.290;2024-02-04T04:25:41;4;4;
28026;PMS5003;15344;52.342;-1.290;2024-02-04T04:28:06;5;3;
28026;PMS5003;15344;52.342;-1.290;2024-02-04T04:30:31;5;3;
28026;PMS5003;15344;52.342;-1.290;2024-02-04T04:32:57;3;3;
28026;PMS5003;15344;52.342;-1.290;2024-02-04T04:35:22;2;2;
28026;PMS5003;15344;52.342;-1.290;2024-02-04T04:37:47;3;3;
28026;PMS5003;15344;52.342;-1.290;2024-02-04T04:40:13;4;3;
28026;PMS5003;15344;52.342;-1.290;2024-02-04T04:42:38;2;2;
28026;PMS5003;15344;52.342;-1.290;2024-02-04T04:45:03;3;3;
28026;PMS5003;15344;52.342;-1.290;2024-02-04T04:47:29;1;1;
28026;PMS5003;15344;52.342;-1.290;2024-02-04T04:49:54;4;4;
28026;PMS5003;15344;52.342;-1.290;2024-02-04T04:52:19;4;2;
28026;PMS5003;15344;52.342;-1.290;2024-02-04T04:54:44;3;3;
28026;PMS5003;15344;52.342;-1.290;2024-02-04T04:57:10;2;2;
28026;PMS5003;15344;52.342;-1.290;2024-02-04T04:59:35;3;3;
28026;PMS5003;15344;52.342;-1.290;2024-02-04T05:02:01;4;3;
28026;PMS5003;15344;52.342;-1.290;2024-02-04T05:04:26;4;3;
28026;PMS5003;15344;52.342;-1.290;2024-02-04T05:06:51;4;4;
28026;PMS5003;15344;52.342;-1.290;2024-02-04T05:09:16;2;2;
28026;PMS5003;15344;52.342;-1.290;2024-02-04T05:11:42;4;4;
28026;PMS5003;15344;52.342;-1.290;2024-02-04T05:14:07;2;2;
28026;PMS5003;15344;52.342;-1.290;2024-02-04T05:16:32;3;3;
28026;PMS5003;15344;52.342;-1.290;2024-02-04T05:18:58;5;3;
28026;PMS5003;15344;52.342;-1.290;2024-02-04T05:21:23;2;2;
28026;PMS5003;15344;52.342;-1.290;2024-02-04T05:23:49;3;3;
28026;PMS5003;15344;52.342;-1.290;2024-02-04T05:26:14;0;0;
28026;PMS5003;15344;52.342;-1.290;2024-02-04T05:28:39;5;3;
28026;PMS5003;15344;52.342;-1.290;2024-02-04T05:31:04;5;4;
28026;PMS5003;15344;52.342;-1.290;2024-02-04T05:33:29;5;4;
28026;PMS5003;15344;52.342;-1.290;2024-02-04T05:35:55;4;4;
28026;PMS5003;15344;52.342;-1.290;2024-02-04T05:38:21;3;2;
28026;PMS5003;15344;52.342;-1.290;2024-02-04T05:40:45;3;3;
28026;PMS5003;15344;52.342;-1.290;2024-02-04T05:43:11;3;3;
28026;PMS5003;15344;52.342;-1.290;2024-02-04T05:45:36;4;4;
28026;PMS5003;15344;52.342;-1.290;2024-02-04T05:48:01;2;2;
28026;PMS5003;15344;52.342;-1.290;2024-02-04T05:50:27;5;2;
28026;PMS5003;15344;52.342;-1.290;2024-02-04T05:52:52;3;3;
28026;PMS5003;15344;52.342;-1.290;2024-02-04T05:55:17;3;3;
28026;PMS5003;15344;52.342;-1.290;2024-02-04T05:57:43;3;3;
28026;PMS5003;15344;52.342;-1.290;2024-02-04T06:00:08;1;1;
28026;PMS5003;15344;52.342;-1.290;2024-02-04T06:02:33;3;3;
28026;PMS5003;15344;52.342;-1.290;2024-02-04T06:04:58;3;3;
28026;PMS5003;15344;52.342;-1.290;2024-02-04T06:07:24;3;1;
28026;PMS5003;15344;52.342;-1.290;2024-02-04T06:09:49;3;3;
28026;PMS5003;15344;52.342;-1.290;2024-02-04T06:12:14;3;3;
28026;PMS5003;15344;52.342;-1.290;2024-02-04T06:14:40;2;2;
28026;PMS5003;15344;52.342;-1.290;2024-02-04T06:17:05;5;3;
28026;PMS5003;15344;52.342;-1.290;2024-02-04T06:19:31;3;3;
28026;PMS5003;15344;52.342;-1.290;2024-02-04T06:21:56;2;2;
28026;PMS5003;15344;52.342;-1.290;2024-02-04T06:24:21;3;3;
28026;PMS5003;15344;52.342;-1.290;2024-02-04T06:26:46;3;2;
28026;PMS5003;15344;52.342;-1.290;2024-02-04T06:29:12;2;2;
28026;PMS5003;15344;52.342;-1.290;2024-02-04T06:31:37;2;2;
28026;PMS5003;15344;52.342;-1.290;2024-02-04T06:34:03;1;1;
28026;PMS5003;15344;52.342;-1.290;2024-02-04T06:36:28;2;2;
28026;PMS5003;15344;52.342;-1.290;2024-02-04T06:38:53;1;1;
28026;PMS5003;15344;52.342;-1.290;2024-02-04T06:41:18;4;2;
28026;PMS5003;15344;52.342;-1.290;2024-02-04T06:43:44;2;2;
28026;PMS5003;15344;52.342;-1.290;2024-02-04T06:46:09;0;0;
28026;PMS5003;15344;52.342;-1.290;2024-02-04T06:48:34;1;1;
28026;PMS5003;15344;52.342;-1.290;2024-02-04T06:50:59;2;1;
28026;PMS5003;15344;52.342;-1.290;2024-02-04T06:53:25;1;1;
28026;PMS5003;15344;52.342;-1.290;2024-02-04T06:55:50;0;0;
28026;PMS5003;15344;52.342;-1.290;2024-02-04T06:58:15;2;1;
28026;PMS5003;15344;52.342;-1.290;2024-02-04T07:00:41;1;1;
28026;PMS5003;15344;52.342;-1.290;2024-02-04T07:03:06;1;0;
28026;PMS5003;15344;52.342;-1.290;2024-02-04T07:05:31;1;1;
28026;PMS5003;15344;52.342;-1.290;2024-02-04T07:07:57;0;0;
28026;PMS5003;15344;52.342;-1.290;2024-02-04T07:10:22;0;0;
28026;PMS5003;15344;52.342;-1.290;2024-02-04T07:12:48;0;0;
28026;PMS5003;15344;52.342;-1.290;2024-02-04T07:15:13;3;1;
28026;PMS5003;15344;52.342;-1.290;2024-02-04T07:17:38;0;0;
28026;PMS5003;15344;52.342;-1.290;2024-02-04T07:20:04;2;1;
28026;PMS5003;15344;52.342;-1.290;2024-02-04T07:22:28;2;0;
28026;PMS5003;15344;52.342;-1.290;2024-02-04T07:24:54;2;1;
28026;PMS5003;15344;52.342;-1.290;2024-02-04T07:27:19;2;2;
28026;PMS5003;15344;52.342;-1.290;2024-02-04T07:29:44;0;0;
28026;PMS5003;15344;52.342;-1.290;2024-02-04T07:32:10;1;1;
28026;PMS5003;15344;52.342;-1.290;2024-02-04T07:34:35;1;1;
28026;PMS5003;15344;52.342;-1.290;2024-02-04T07:37:00;1;1;
28026;PMS5003;15344;52.342;-1.290;2024-02-04T07:39:26;1;1;
28026;PMS5003;15344;52.342;-1.290;2024-02-04T07:41:51;1;1;
28026;PMS5003;15344;52.342;-1.290;2024-02-04T07:44:16;1;1;
28026;PMS5003;15344;52.342;-1.290;2024-02-04T07:46:42;1;1;
28026;PMS5003;15344;52.342;-1.290;2024-02-04T07:49:07;1;1;
28026;PMS5003;15344;52.342;-1.290;2024-02-04T07:51:32;2;1;
28026;PMS5003;15344;52.342;-1.290;2024-02-04T07:53:58;0;0;
28026;PMS5003;15344;52.342;-1.290;2024-02-04T07:56:23;0;0;
28026;PMS5003;15344;52.342;-1.290;2024-02-04T07:58:48;1;1;
28026;PMS5003;15344;52.342;-1.290;2024-02-04T08:01:13;0;0;
28026;PMS5003;15344;52.342;-1.290;2024-02-04T08:03:39;1;1;
28026;PMS5003;15344;52.342;-1.290;2024-02-04T08:06:04;0;0;
28026;PMS5003;15344;52.342;-1.290;2024-02-04T08:08:29;1;1;
28026;PMS5003;15344;52.342;-1.290;2024-02-04T08:10:55;0;0;
28026;PMS5003;15344;52.342;-1.290;2024-02-04T08:13:20;0;0;
28026;PMS5003;15344;52.342;-1.290;2024-02-04T08:15:45;0;0;
28026;PMS5003;15344;52.342;-1.290;2024-02-04T08:18:11;1;1;
28026;PMS5003;15344;52.342;-1.290;2024-02-04T08:20:36;1;1;
28026;PMS5003;15344;52.342;-1.290;2024-02-04T08:23:01;2;1;
28026;PMS5003;15344;52.342;-1.290;2024-02-04T08:25:26;0;0;
28026;PMS5003;15344;52.342;-1.290;2024-02-04T08:27:52;0;0;
28026;PMS5003;15344;52.342;-1.290;2024-02-04T08:30:17;0;0;
28026;PMS5003;15344;52.342;-1.290;2024-02-04T08:32:43;0;0;
28026;PMS5003;15344;52.342;-1.290;2024-02-04T08:35:08;1;1;
28026;PMS5003;15344;52.342;-1.290;2024-02-04T08:37:33;1;1;
28026;PMS5003;15344;52.342;-1.290;2024-02-04T08:39:58;0;0;
28026;PMS5003;15344;52.342;-1.290;2024-02-04T08:42:23;1;1;
28026;PMS5003;15344;52.342;-1.290;2024-02-04T08:44:49;0;0;
28026;PMS5003;15344;52.342;-1.290;2024-02-04T08:47:14;1;1;
28026;PMS5003;15344;52.342;-1.290;2024-02-04T08:49:39;1;1;
28026;PMS5003;15344;52.342;-1.290;2024-02-04T08:52:05;1;1;
28026;PMS5003;15344;52.342;-1.290;2024-02-04T08:54:30;1;1;
28026;PMS5003;15344;52.342;-1.290;2024-02-04T08:56:55;0;0;
28026;PMS5003;15344;52.342;-1.290;2024-02-04T08:59:21;1;0;
28026;PMS5003;15344;52.342;-1.290;2024-02-04T09:01:46;0;0;
28026;PMS5003;15344;52.342;-1.290;2024-02-04T09:04:11;0;0;
28026;PMS5003;15344;52.342;-1.290;2024-02-04T09:06:36;0;0;
28026;PMS5003;15344;52.342;-1.290;2024-02-04T09:09:02;1;1;
28026;PMS5003;15344;52.342;-1.290;2024-02-04T09:11:27;0;0;
28026;PMS5003;15344;52.342;-1.290;2024-02-04T09:13:52;2;1;
28026;PMS5003;15344;52.342;-1.290;2024-02-04T09:16:18;2;0;
28026;PMS5003;15344;52.342;-1.290;2024-02-04T09:18:43;1;1;
28026;PMS5003;15344;52.342;-1.290;2024-02-04T09:21:08;0;0;
28026;PMS5003;15344;52.342;-1.290;2024-02-04T09:23:33;0;0;
28026;PMS5003;15344;52.342;-1.290;2024-02-04T09:25:59;1;1;
28026;PMS5003;15344;52.342;-1.290;2024-02-04T09:28:24;2;0;
28026;PMS5003;15344;52.342;-1.290;2024-02-04T09:30:49;3;1;
28026;PMS5003;15344;52.342;-1.290;2024-02-04T09:33:14;0;0;
28026;PMS5003;15344;52.342;-1.290;2024-02-04T09:35:40;0;0;
28026;PMS5003;15344;52.342;-1.290;2024-02-04T09:38:05;0;0;
28026;PMS5003;15344;52.342;-1.290;2024-02-04T09:40:30;3;1;
28026;PMS5003;15344;52.342;-1.290;2024-02-04T09:42:56;1;1;
28026;PMS5003;15344;52.342;-1.290;2024-02-04T09:45:21;1;1;
28026;PMS5003;15344;52.342;-1.290;2024-02-04T09:47:46;0;0;
28026;PMS5003;15344;52.342;-1.290;2024-02-04T09:50:12;2;1;
28026;PMS5003;15344;52.342;-1.290;2024-02-04T09:52:38;3;0;
28026;PMS5003;15344;52.342;-1.290;2024-02-04T09:55:02;1;1;
28026;PMS5003;15344;52.342;-1.290;2024-02-04T09:57:28;1;1;
28026;PMS5003;15344;52.342;-1.290;2024-02-04T09:59:53;1;1;
28026;PMS5003;15344;52.342;-1.290;2024-02-04T10:02:18;0;0;
28026;PMS5003;15344;52.342;-1.290;2024-02-04T10:04:43;1;1;
28026;PMS5003;15344;52.342;-1.290;2024-02-04T10:07:08;1;1;
28026;PMS5003;15344;52.342;-1.290;2024-02-04T10:09:34;1;0;
28026;PMS5003;15344;52.342;-1.290;2024-02-04T10:11:59;1;0;
28026;PMS5003;15344;52.342;-1.290;2024-02-04T10:14:25;0;0;
28026;PMS5003;15344;52.342;-1.290;2024-02-04T10:16:50;0;0;
28026;PMS5003;15344;52.342;-1.290;2024-02-04T10:19:16;0;0;
28026;PMS5003;15344;52.342;-1.290;2024-02-04T10:21:40;0;0;
28026;PMS5003;15344;52.342;-1.290;2024-02-04T10:24:06;0;0;
28026;PMS5003;15344;52.342;-1.290;2024-02-04T10:26:31;0;0;
28026;PMS5003;15344;52.342;-1.290;2024-02-04T10:28:57;1;1;
28026;PMS5003;15344;52.342;-1.290;2024-02-04T10:31:21;0;0;
28026;PMS5003;15344;52.342;-1.290;2024-02-04T10:33:46;0;0;
28026;PMS5003;15344;52.342;-1.290;2024-02-04T10:36:12;2;0;
28026;PMS5003;15344;52.342;-1.290;2024-02-04T10:38:37;1;1;
28026;PMS5003;15344;52.342;-1.290;2024-02-04T10:41:02;1;0;
28026;PMS5003;15344;52.342;-1.290;2024-02-04T10:43:28;1;1;
28026;PMS5003;15344;52.342;-1.290;2024-02-04T10:45:53;0;0;
28026;PMS5003;15344;52.342;-1.290;2024-02-04T10:48:19;0;0;
28026;PMS5003;15344;52.342;-1.290;2024-02-04T10:50:43;0;0;
28026;PMS5003;15344;52.342;-1.290;2024-02-04T10:53:08;0;0;
28026;PMS5003;15344;52.342;-1.290;2024-02-04T10:55:35;0;0;
28026;PMS5003;15344;52.342;-1.290;2024-02-04T10:57:59;2;1;
28026;PMS5003;15344;52.342;-1.290;2024-02-04T11:00:24;0;0;
28026;PMS5003;15344;52.342;-1.290;2024-02-04T11:02:49;0;0;
28026;PMS5003;15344;52.342;-1.290;2024-02-04T11:05:15;4;0;
28026;PMS5003;15344;52.342;-1.290;2024-02-04T11:07:40;1;1;
28026;PMS5003;15344;52.342;-1.290;2024-02-04T11:10:06;4;1;
28026;PMS5003;15344;52.342;-1.290;2024-02-04T11:12:31;1;1;
28026;PMS5003;15344;52.342;-1.290;2024-02-04T11:14:57;1;0;
28026;PMS5003;15344;52.342;-1.290;2024-02-04T11:17:28;1;1;
28026;PMS5003;15344;52.342;-1.290;2024-02-04T11:19:50;2;0;
28026;PMS5003;15344;52.342;-1.290;2024-02-04T11:22:17;2;0;
28026;PMS5003;15344;52.342;-1.290;2024-02-04T11:24:43;2;1;
28026;PMS5003;15344;52.342;-1.290;2024-02-04T11:27:02;1;1;
28026;PMS5003;15344;52.342;-1.290;2024-02-04T11:29:28;1;1;
28026;PMS5003;15344;52.342;-1.290;2024-02-04T11:31:53;0;0;
28026;PMS5003;15344;52.342;-1.290;2024-02-04T11:34:18;1;1;
28026;PMS5003;15344;52.342;-1.290;2024-02-04T11:36:43;3;1;
28026;PMS5003;15344;52.342;-1.290;2024-02-04T11:39:12;0;0;
28026;PMS5003;15344;52.342;-1.290;2024-02-04T11:41:34;1;1;
28026;PMS5003;15344;52.342;-1.290;2024-02-04T11:43:59;2;2;
28026;PMS5003;15344;52.342;-1.290;2024-02-04T11:46:27;4;1;
28026;PMS5003;15344;52.342;-1.290;2024-02-04T11:48:51;2;0;
28026;PMS5003;15344;52.342;-1.290;2024-02-04T11:51:15;7;1;
28026;PMS5003;15344;52.342;-1.290;2024-02-04T11:53:40;1;1;
28026;PMS5003;15344;52.342;-1.290;2024-02-04T11:56:06;1;1;
28026;PMS5003;15344;52.342;-1.290;2024-02-04T11:58:31;2;0;
28026;PMS5003;15344;52.342;-1.290;2024-02-04T12:00:56;1;1;
28026;PMS5003;15344;52.342;-1.290;2024-02-04T12:05:46;0;0;
28026;PMS5003;15344;52.342;-1.290;2024-02-04T12:08:11;2;1;
28026;PMS5003;15344;52.342;-1.290;2024-02-04T12:10:37;3;0;
28026;PMS5003;15344;52.342;-1.290;2024-02-04T12:13:03;2;0;
28026;PMS5003;15344;52.342;-1.290;2024-02-04T12:15:27;1;1;
28026;PMS5003;15344;52.342;-1.290;2024-02-04T12:17:52;1;1;
28026;PMS5003;15344;52.342;-1.290;2024-02-04T12:20:18;2;2;
28026;PMS5003;15344;52.342;-1.290;2024-02-04T12:22:43;5;2;
28026;PMS5003;15344;52.342;-1.290;2024-02-04T12:25:08;2;1;
28026;PMS5003;15344;52.342;-1.290;2024-02-04T12:27:34;1;0;
28026;PMS5003;15344;52.342;-1.290;2024-02-04T12:29:58;1;0;
28026;PMS5003;15344;52.342;-1.290;2024-02-04T12:32:24;1;1;
28026;PMS5003;15344;52.342;-1.290;2024-02-04T12:34:49;1;1;
28026;PMS5003;15344;52.342;-1.290;2024-02-04T12:37:15;3;1;
28026;PMS5003;15344;52.342;-1.290;2024-02-04T12:39:39;2;1;
28026;PMS5003;15344;52.342;-1.290;2024-02-04T12:42:05;5;1;
28026;PMS5003;15344;52.342;-1.290;2024-02-04T12:44:30;3;2;
28026;PMS5003;15344;52.342;-1.290;2024-02-04T12:46:55;4;2;
28026;PMS5003;15344;52.342;-1.290;2024-02-04T12:49:20;2;0;
28026;PMS5003;15344;52.342;-1.290;2024-02-04T12:51:45;2;1;
28026;PMS5003;15344;52.342;-1.290;2024-02-04T12:54:11;0;0;
28026;PMS5003;15344;52.342;-1.290;2024-02-04T12:56:40;0;0;
28026;PMS5003;15344;52.342;-1.290;2024-02-04T12:59:01;4;0;
28026;PMS5003;15344;52.342;-1.290;2024-02-04T13:01:26;0;0;
28026;PMS5003;15344;52.342;-1.290;2024-02-04T13:03:55;1;1;
28026;PMS5003;15344;52.342;-1.290;2024-02-04T13:06:17;1;0;
28026;PMS5003;15344;52.342;-1.290;2024-02-04T13:08:42;0;0;
28026;PMS5003;15344;52.342;-1.290;2024-02-04T13:11:07;0;0;
28026;PMS5003;15344;52.342;-1.290;2024-02-04T13:13:32;0;0;
28026;PMS5003;15344;52.342;-1.290;2024-02-04T13:15:58;0;0;
28026;PMS5003;15344;52.342;-1.290;2024-02-04T13:18:23;0;0;
28026;PMS5003;15344;52.342;-1.290;2024-02-04T13:20:48;0;0;
28026;PMS5003;15344;52.342;-1.290;2024-02-04T13:23:13;0;0;
28026;PMS5003;15344;52.342;-1.290;2024-02-04T13:25:38;1;0;
28026;PMS5003;15344;52.342;-1.290;2024-02-04T13:28:04;0;0;
28026;PMS5003;15344;52.342;-1.290;2024-02-04T13:30:29;0;0;
28026;PMS5003;15344;52.342;-1.290;2024-02-04T13:32:54;0;0;
28026;PMS5003;15344;52.342;-1.290;2024-02-04T13:35:19;0;0;
28026;PMS5003;15344;52.342;-1.290;2024-02-04T13:37:45;0;0;
28026;PMS5003;15344;52.342;-1.290;2024-02-04T13:40:10;0;0;
28026;PMS5003;15344;52.342;-1.290;2024-02-04T13:42:35;0;0;
28026;PMS5003;15344;52.342;-1.290;2024-02-04T13:45:00;0;0;
28026;PMS5003;15344;52.342;-1.290;2024-02-04T13:47:25;1;0;
28026;PMS5003;15344;52.342;-1.290;2024-02-04T13:49:50;0;0;
28026;PMS5003;15344;52.342;-1.290;2024-02-04T13:52:16;0;0;
28026;PMS5003;15344;52.342;-1.290;2024-02-04T13:54:41;0;0;
28026;PMS5003;15344;52.342;-1.290;2024-02-04T13:57:06;0;0;
28026;PMS5003;15344;52.342;-1.290;2024-02-04T13:59:32;0;0;
28026;PMS5003;15344;52.342;-1.290;2024-02-04T14:01:56;0;0;
28026;PMS5003;15344;52.342;-1.290;2024-02-04T14:04:22;0;0;
28026;PMS5003;15344;52.342;-1.290;2024-02-04T14:06:47;0;0;
28026;PMS5003;15344;52.342;-1.290;2024-02-04T14:09:12;1;1;
28026;PMS5003;15344;52.342;-1.290;2024-02-04T14:11:37;0;0;
28026;PMS5003;15344;52.342;-1.290;2024-02-04T14:14:02;0;0;
28026;PMS5003;15344;52.342;-1.290;2024-02-04T14:16:28;0;0;
28026;PMS5003;15344;52.342;-1.290;2024-02-04T14:18:53;0;0;
28026;PMS5003;15344;52.342;-1.290;2024-02-04T14:21:18;0;0;
28026;PMS5003;15344;52.342;-1.290;2024-02-04T14:23:43;0;0;
28026;PMS5003;15344;52.342;-1.290;2024-02-04T14:28:34;1;1;
28026;PMS5003;15344;52.342;-1.290;2024-02-04T14:30:59;0;0;
28026;PMS5003;15344;52.342;-1.290;2024-02-04T14:33:24;0;0;
28026;PMS5003;15344;52.342;-1.290;2024-02-04T14:35:49;0;0;
28026;PMS5003;15344;52.342;-1.290;2024-02-04T14:38:15;0;0;
28026;PMS5003;15344;52.342;-1.290;2024-02-04T14:40:40;2;0;
28026;PMS5003;15344;52.342;-1.290;2024-02-04T14:43:05;1;0;
28026;PMS5003;15344;52.342;-1.290;2024-02-04T14:45:30;2;0;
28026;PMS5003;15344;52.342;-1.290;2024-02-04T14:47:55;0;0;
28026;PMS5003;15344;52.342;-1.290;2024-02-04T14:50:21;0;0;
28026;PMS5003;15344;52.342;-1.290;2024-02-04T14:52:46;1;1;
28026;PMS5003;15344;52.342;-1.290;2024-02-04T14:55:11;1;1;
28026;PMS5003;15344;52.342;-1.290;2024-02-04T14:57:36;0;0;
28026;PMS5003;15344;52.342;-1.290;2024-02-04T15:00:02;0;0;
28026;PMS5003;15344;52.342;-1.290;2024-02-04T15:02:27;0;0;
28026;PMS5003;15344;52.342;-1.290;2024-02-04T15:04:52;1;1;
28026;PMS5003;15344;52.342;-1.290;2024-02-04T15:07:17;0;0;
28026;PMS5003;15344;52.342;-1.290;2024-02-04T15:09:43;1;1;
28026;PMS5003;15344;52.342;-1.290;2024-02-04T15:12:08;0;0;
28026;PMS5003;15344;52.342;-1.290;2024-02-04T15:14:33;1;0;
28026;PMS5003;15344;52.342;-1.290;2024-02-04T15:16:59;0;0;
28026;PMS5003;15344;52.342;-1.290;2024-02-04T15:19:24;0;0;
28026;PMS5003;15344;52.342;-1.290;2024-02-04T15:21:49;1;1;
28026;PMS5003;15344;52.342;-1.290;2024-02-04T15:24:14;0;0;
28026;PMS5003;15344;52.342;-1.290;2024-02-04T15:26:39;2;1;
28026;PMS5003;15344;52.342;-1.290;2024-02-04T15:29:04;0;0;
28026;PMS5003;15344;52.342;-1.290;2024-02-04T15:31:29;1;1;
28026;PMS5003;15344;52.342;-1.290;2024-02-04T15:33:55;1;0;
28026;PMS5003;15344;52.342;-1.290;2024-02-04T15:36:20;0;0;
28026;PMS5003;15344;52.342;-1.290;2024-02-04T15:38:45;1;1;
28026;PMS5003;15344;52.342;-1.290;2024-02-04T15:41:10;2;0;
28026;PMS5003;15344;52.342;-1.290;2024-02-04T15:43:35;3;1;
28026;PMS5003;15344;52.342;-1.290;2024-02-04T15:46:00;1;1;
28026;PMS5003;15344;52.342;-1.290;2024-02-04T15:48:27;0;0;
28026;PMS5003;15344;52.342;-1.290;2024-02-04T15:50:51;3;1;
28026;PMS5003;15344;52.342;-1.290;2024-02-04T15:53:16;0;0;
28026;PMS5003;15344;52.342;-1.290;2024-02-04T15:55:42;2;2;
28026;PMS5003;15344;52.342;-1.290;2024-02-04T15:58:06;1;1;
28026;PMS5003;15344;52.342;-1.290;2024-02-04T16:00:32;1;1;
28026;PMS5003;15344;52.342;-1.290;2024-02-04T16:02:57;2;1;
28026;PMS5003;15344;52.342;-1.290;2024-02-04T16:05:22;5;1;
28026;PMS5003;15344;52.342;-1.290;2024-02-04T16:07:48;0;0;
28026;PMS5003;15344;52.342;-1.290;2024-02-04T16:10:14;0;0;
28026;PMS5003;15344;52.342;-1.290;2024-02-04T16:12:39;5;2;
28026;PMS5003;15344;52.342;-1.290;2024-02-04T16:15:04;3;1;
28026;PMS5003;15344;52.342;-1.290;2024-02-04T16:17:29;2;2;
28026;PMS5003;15344;52.342;-1.290;2024-02-04T16:19:55;3;1;
28026;PMS5003;15344;52.342;-1.290;2024-02-04T16:22:20;2;2;
28026;PMS5003;15344;52.342;-1.290;2024-02-04T16:24:45;2;0;